sensor_id;sensor_type;location;lat;lon;timestamp;P1;durP1;ratioP1;P2;durP2;ratioP2
4294;SDS011;2161;53.634;10.100;2023-04-15T00:00:13;562.13;;;121.15;;
4294;SDS011;2161;53.634;10.100;2023-04-15T00:02:40;562.25;;;118.72;;
4294;SDS011;2161;53.634;10.100;2023-04-15T00:05:05;561.27;;;119.23;;
4294;SDS011;2161;53.634;10.100;2023-04-15T00:07:31;559.27;;;117.00;;
4294;SDS011;2161;53.634;10.100;2023-04-15T00:09:57;566.30;;;121.00;;
4294;SDS011;2161;53.634;10.100;2023-04-15T00:12:23;562.85;;;120.07;;
4294;SDS011;2161;53.634;10.100;2023-04-15T00:14:50;568.92;;;123.70;;
4294;SDS011;2161;53.634;10.100;2023-04-15T00:17:15;566.17;;;121.30;;
4294;SDS011;2161;53.634;10.100;2023-04-15T00:19:41;559.25;;;118.68;;
4294;SDS011;2161;53.634;10.100;2023-04-15T00:22:08;557.63;;;116.32;;
4294;SDS011;2161;53.634;10.100;2023-04-15T00:24:34;571.93;;;125.50;;
4294;SDS011;2161;53.634;10.100;2023-04-15T00:26:59;558.77;;;116.87;;
4294;SDS011;2161;53.634;10.100;2023-04-15T00:29:25;551.13;;;114.50;;
4294;SDS011;2161;53.634;10.100;2023-04-15T00:31:50;559.03;;;117.50;;
4294;SDS011;2161;53.634;10.100;2023-04-15T00:34:16;559.87;;;118.70;;
4294;SDS011;2161;53.634;10.100;2023-04-15T00:36:42;559.47;;;118.53;;
4294;SDS011;2161;53.634;10.100;2023-04-15T00:39:08;562.83;;;119.40;;
4294;SDS011;2161;53.634;10.100;2023-04-15T00:41:34;561.83;;;119.17;;
4294;SDS011;2161;53.634;10.100;2023-04-15T00:44:03;561.60;;;120.17;;
4294;SDS011;2161;53.634;10.100;2023-04-15T00:46:29;558.47;;;118.18;;
4294;SDS011;2161;53.634;10.100;2023-04-15T00:48:55;561.90;;;118.55;;
4294;SDS011;2161;53.634;10.100;2023-04-15T00:51:21;557.97;;;117.30;;
4294;SDS011;2161;53.634;10.100;2023-04-15T00:53:46;570.40;;;127.63;;
4294;SDS011;2161;53.634;10.100;2023-04-15T00:56:12;555.53;;;116.10;;
4294;SDS011;2161;53.634;10.100;2023-04-15T00:58:38;561.20;;;119.30;;
4294;SDS011;2161;53.634;10.100;2023-04-15T01:01:03;559.47;;;117.53;;
4294;SDS011;2161;53.634;10.100;2023-04-15T01:03:29;562.93;;;120.23;;
4294;SDS011;2161;53.634;10.100;2023-04-15T01:05:55;559.23;;;119.50;;
4294;SDS011;2161;53.634;10.100;2023-04-15T01:08:29;564.90;;;122.13;;
4294;SDS011;2161;53.634;10.100;2023-04-15T01:10:56;560.15;;;119.70;;
4294;SDS011;2161;53.634;10.100;2023-04-15T01:13:23;555.22;;;116.45;;
4294;SDS011;2161;53.634;10.100;2023-04-15T01:15:49;562.47;;;119.97;;
4294;SDS011;2161;53.634;10.100;2023-04-15T01:18:16;562.17;;;119.25;;
4294;SDS011;2161;53.634;10.100;2023-04-15T01:20:42;556.33;;;117.65;;
4294;SDS011;2161;53.634;10.100;2023-04-15T01:23:08;553.97;;;116.82;;
4294;SDS011;2161;53.634;10.100;2023-04-15T01:25:34;552.07;;;115.07;;
4294;SDS011;2161;53.634;10.100;2023-04-15T01:27:59;556.57;;;118.23;;
4294;SDS011;2161;53.634;10.100;2023-04-15T01:30:26;567.53;;;121.93;;
4294;SDS011;2161;53.634;10.100;2023-04-15T01:32:52;559.53;;;119.60;;
4294;SDS011;2161;53.634;10.100;2023-04-15T01:35:18;559.38;;;117.68;;
4294;SDS011;2161;53.634;10.100;2023-04-15T01:37:43;556.03;;;117.57;;
4294;SDS011;2161;53.634;10.100;2023-04-15T01:40:10;562.40;;;120.77;;
4294;SDS011;2161;53.634;10.100;2023-04-15T01:42:35;560.60;;;119.17;;
4294;SDS011;2161;53.634;10.100;2023-04-15T01:45:01;555.17;;;118.33;;
4294;SDS011;2161;53.634;10.100;2023-04-15T01:47:27;554.35;;;116.90;;
4294;SDS011;2161;53.634;10.100;2023-04-15T01:49:53;553.63;;;115.87;;
4294;SDS011;2161;53.634;10.100;2023-04-15T01:52:18;560.90;;;120.77;;
4294;SDS011;2161;53.634;10.100;2023-04-15T01:54:44;557.77;;;117.33;;
4294;SDS011;2161;53.634;10.100;2023-04-15T01:57:10;564.87;;;122.23;;
4294;SDS011;2161;53.634;10.100;2023-04-15T01:59:36;561.35;;;120.05;;
4294;SDS011;2161;53.634;10.100;2023-04-15T02:02:02;557.70;;;118.47;;
4294;SDS011;2161;53.634;10.100;2023-04-15T02:04:28;554.63;;;116.47;;
4294;SDS011;2161;53.634;10.100;2023-04-15T02:06:53;552.97;;;115.47;;
4294;SDS011;2161;53.634;10.100;2023-04-15T02:09:19;565.97;;;122.37;;
4294;SDS011;2161;53.634;10.100;2023-04-15T02:11:45;556.57;;;117.47;;
4294;SDS011;2161;53.634;10.100;2023-04-15T02:14:10;573.10;;;125.83;;
4294;SDS011;2161;53.634;10.100;2023-04-15T02:16:36;564.72;;;122.35;;
4294;SDS011;2161;53.634;10.100;2023-04-15T02:19:02;564.33;;;121.00;;
4294;SDS011;2161;53.634;10.100;2023-04-15T02:21:28;556.97;;;118.37;;
4294;SDS011;2161;53.634;10.100;2023-04-15T02:23:54;591.10;;;136.00;;
4294;SDS011;2161;53.634;10.100;2023-04-15T02:26:20;566.03;;;122.00;;
4294;SDS011;2161;53.634;10.100;2023-04-15T02:28:46;562.47;;;120.05;;
4294;SDS011;2161;53.634;10.100;2023-04-15T02:31:12;567.78;;;122.88;;
4294;SDS011;2161;53.634;10.100;2023-04-15T02:33:38;558.23;;;118.57;;
4294;SDS011;2161;53.634;10.100;2023-04-15T02:36:04;558.73;;;118.50;;
4294;SDS011;2161;53.634;10.100;2023-04-15T02:38:30;562.88;;;120.28;;
4294;SDS011;2161;53.634;10.100;2023-04-15T02:40:56;559.80;;;119.77;;
4294;SDS011;2161;53.634;10.100;2023-04-15T02:43:21;557.37;;;118.80;;
4294;SDS011;2161;53.634;10.100;2023-04-15T02:45:47;558.63;;;118.38;;
4294;SDS011;2161;53.634;10.100;2023-04-15T02:48:13;561.27;;;120.17;;
4294;SDS011;2161;53.634;10.100;2023-04-15T02:50:40;558.63;;;118.80;;
4294;SDS011;2161;53.634;10.100;2023-04-15T02:53:06;559.23;;;119.47;;
4294;SDS011;2161;53.634;10.100;2023-04-15T02:55:31;558.10;;;117.93;;
4294;SDS011;2161;53.634;10.100;2023-04-15T02:57:57;554.00;;;117.37;;
4294;SDS011;2161;53.634;10.100;2023-04-15T03:00:24;564.75;;;122.75;;
4294;SDS011;2161;53.634;10.100;2023-04-15T03:02:51;562.10;;;120.40;;
4294;SDS011;2161;53.634;10.100;2023-04-15T03:05:23;561.08;;;121.03;;
4294;SDS011;2161;53.634;10.100;2023-04-15T03:07:49;556.97;;;118.45;;
4294;SDS011;2161;53.634;10.100;2023-04-15T03:10:18;559.75;;;119.43;;
4294;SDS011;2161;53.634;10.100;2023-04-15T03:12:44;562.00;;;120.33;;
4294;SDS011;2161;53.634;10.100;2023-04-15T03:15:09;561.97;;;120.53;;
4294;SDS011;2161;53.634;10.100;2023-04-15T03:17:35;556.47;;;118.23;;
4294;SDS011;2161;53.634;10.100;2023-04-15T03:20:01;556.67;;;117.90;;
4294;SDS011;2161;53.634;10.100;2023-04-15T03:22:30;559.45;;;119.00;;
4294;SDS011;2161;53.634;10.100;2023-04-15T03:24:56;556.58;;;117.90;;
4294;SDS011;2161;53.634;10.100;2023-04-15T03:27:22;561.23;;;120.47;;
4294;SDS011;2161;53.634;10.100;2023-04-15T03:29:47;560.63;;;120.03;;
4294;SDS011;2161;53.634;10.100;2023-04-15T03:32:13;565.73;;;124.47;;
4294;SDS011;2161;53.634;10.100;2023-04-15T03:34:39;558.13;;;118.55;;
4294;SDS011;2161;53.634;10.100;2023-04-15T03:37:06;564.58;;;122.10;;
4294;SDS011;2161;53.634;10.100;2023-04-15T03:39:31;558.53;;;118.43;;
4294;SDS011;2161;53.634;10.100;2023-04-15T03:41:57;553.30;;;116.73;;
4294;SDS011;2161;53.634;10.100;2023-04-15T03:44:23;562.05;;;120.55;;
4294;SDS011;2161;53.634;10.100;2023-04-15T03:46:50;559.45;;;119.72;;
4294;SDS011;2161;53.634;10.100;2023-04-15T03:49:16;563.77;;;121.97;;
4294;SDS011;2161;53.634;10.100;2023-04-15T03:51:43;560.50;;;118.85;;
4294;SDS011;2161;53.634;10.100;2023-04-15T03:54:08;552.57;;;115.87;;
4294;SDS011;2161;53.634;10.100;2023-04-15T03:56:34;556.50;;;118.90;;
4294;SDS011;2161;53.634;10.100;2023-04-15T03:58:59;558.27;;;118.97;;
4294;SDS011;2161;53.634;10.100;2023-04-15T04:01:25;557.27;;;119.50;;
4294;SDS011;2161;53.634;10.100;2023-04-15T04:03:51;578.37;;;132.80;;
4294;SDS011;2161;53.634;10.100;2023-04-15T04:06:16;559.87;;;120.63;;
4294;SDS011;2161;53.634;10.100;2023-04-15T04:08:42;559.40;;;118.90;;
4294;SDS011;2161;53.634;10.100;2023-04-15T04:11:07;554.67;;;117.90;;
4294;SDS011;2161;53.634;10.100;2023-04-15T04:13:33;554.90;;;116.33;;
4294;SDS011;2161;53.634;10.100;2023-04-15T04:15:59;556.40;;;119.37;;
4294;SDS011;2161;53.634;10.100;2023-04-15T04:18:24;550.17;;;114.63;;
4294;SDS011;2161;53.634;10.100;2023-04-15T04:20:50;558.30;;;118.33;;
4294;SDS011;2161;53.634;10.100;2023-04-15T04:23:16;558.57;;;118.07;;
4294;SDS011;2161;53.634;10.100;2023-04-15T04:25:41;554.13;;;117.00;;
4294;SDS011;2161;53.634;10.100;2023-04-15T04:28:07;552.93;;;115.17;;
4294;SDS011;2161;53.634;10.100;2023-04-15T04:30:33;558.20;;;119.83;;
4294;SDS011;2161;53.634;10.100;2023-04-15T04:33:00;554.15;;;116.70;;
4294;SDS011;2161;53.634;10.100;2023-04-15T04:35:25;571.60;;;126.67;;
4294;SDS011;2161;53.634;10.100;2023-04-15T04:37:51;552.50;;;116.67;;
4294;SDS011;2161;53.634;10.100;2023-04-15T04:40:17;562.60;;;120.55;;
4294;SDS011;2161;53.634;10.100;2023-04-15T04:42:43;554.77;;;116.97;;
4294;SDS011;2161;53.634;10.100;2023-04-15T04:45:08;556.30;;;118.57;;
4294;SDS011;2161;53.634;10.100;2023-04-15T04:47:34;551.83;;;115.67;;
4294;SDS011;2161;53.634;10.100;2023-04-15T04:50:00;559.87;;;119.40;;
4294;SDS011;2161;53.634;10.100;2023-04-15T04:52:25;561.07;;;122.13;;
4294;SDS011;2161;53.634;10.100;2023-04-15T04:54:51;553.77;;;116.67;;
4294;SDS011;2161;53.634;10.100;2023-04-15T04:57:17;562.10;;;122.63;;
4294;SDS011;2161;53.634;10.100;2023-04-15T04:59:42;555.03;;;118.07;;
4294;SDS011;2161;53.634;10.100;2023-04-15T05:02:08;561.07;;;122.40;;
4294;SDS011;2161;53.634;10.100;2023-04-15T05:04:33;549.13;;;115.57;;
4294;SDS011;2161;53.634;10.100;2023-04-15T05:06:59;554.60;;;118.43;;
4294;SDS011;2161;53.634;10.100;2023-04-15T05:09:27;558.13;;;119.80;;
4294;SDS011;2161;53.634;10.100;2023-04-15T05:11:56;557.25;;;117.90;;
4294;SDS011;2161;53.634;10.100;2023-04-15T05:14:21;558.00;;;119.17;;
4294;SDS011;2161;53.634;10.100;2023-04-15T05:16:47;553.20;;;117.47;;
4294;SDS011;2161;53.634;10.100;2023-04-15T05:19:12;562.77;;;122.60;;
4294;SDS011;2161;53.634;10.100;2023-04-15T05:21:38;552.40;;;117.13;;
4294;SDS011;2161;53.634;10.100;2023-04-15T05:24:04;550.17;;;115.60;;
4294;SDS011;2161;53.634;10.100;2023-04-15T05:26:30;554.95;;;117.30;;
4294;SDS011;2161;53.634;10.100;2023-04-15T05:28:56;555.53;;;117.77;;
4294;SDS011;2161;53.634;10.100;2023-04-15T05:31:21;559.93;;;120.73;;
4294;SDS011;2161;53.634;10.100;2023-04-15T05:33:47;566.50;;;125.87;;
4294;SDS011;2161;53.634;10.100;2023-04-15T05:36:12;559.37;;;120.03;;
4294;SDS011;2161;53.634;10.100;2023-04-15T05:38:38;555.87;;;117.53;;
4294;SDS011;2161;53.634;10.100;2023-04-15T05:41:04;556.50;;;117.47;;
4294;SDS011;2161;53.634;10.100;2023-04-15T05:43:29;559.10;;;120.67;;
4294;SDS011;2161;53.634;10.100;2023-04-15T05:45:55;556.63;;;117.53;;
4294;SDS011;2161;53.634;10.100;2023-04-15T05:48:21;560.17;;;121.13;;
4294;SDS011;2161;53.634;10.100;2023-04-15T05:50:46;561.07;;;119.43;;
4294;SDS011;2161;53.634;10.100;2023-04-15T05:53:12;555.13;;;118.57;;
4294;SDS011;2161;53.634;10.100;2023-04-15T05:55:37;561.60;;;121.47;;
4294;SDS011;2161;53.634;10.100;2023-04-15T05:58:03;573.07;;;123.83;;
4294;SDS011;2161;53.634;10.100;2023-04-15T06:00:28;551.00;;;114.40;;
4294;SDS011;2161;53.634;10.100;2023-04-15T06:02:55;551.85;;;114.78;;
4294;SDS011;2161;53.634;10.100;2023-04-15T06:05:22;543.05;;;109.78;;
4294;SDS011;2161;53.634;10.100;2023-04-15T06:07:48;547.30;;;112.40;;
4294;SDS011;2161;53.634;10.100;2023-04-15T06:10:14;549.63;;;113.20;;
4294;SDS011;2161;53.634;10.100;2023-04-15T06:12:39;547.57;;;112.43;;
4294;SDS011;2161;53.634;10.100;2023-04-15T06:15:05;547.00;;;112.07;;
4294;SDS011;2161;53.634;10.100;2023-04-15T06:17:33;549.00;;;113.63;;
4294;SDS011;2161;53.634;10.100;2023-04-15T06:19:59;548.93;;;113.67;;
4294;SDS011;2161;53.634;10.100;2023-04-15T06:22:24;544.23;;;110.97;;
4294;SDS011;2161;53.634;10.100;2023-04-15T06:24:50;548.40;;;113.00;;
4294;SDS011;2161;53.634;10.100;2023-04-15T06:27:16;545.63;;;112.00;;
4294;SDS011;2161;53.634;10.100;2023-04-15T06:29:41;543.70;;;111.07;;
4294;SDS011;2161;53.634;10.100;2023-04-15T06:32:07;551.87;;;114.87;;
4294;SDS011;2161;53.634;10.100;2023-04-15T06:34:33;547.20;;;112.17;;
4294;SDS011;2161;53.634;10.100;2023-04-15T06:36:58;544.87;;;111.93;;
4294;SDS011;2161;53.634;10.100;2023-04-15T06:39:25;552.08;;;114.28;;
4294;SDS011;2161;53.634;10.100;2023-04-15T06:41:50;549.43;;;113.87;;
4294;SDS011;2161;53.634;10.100;2023-04-15T06:44:16;544.73;;;111.93;;
4294;SDS011;2161;53.634;10.100;2023-04-15T06:46:42;546.47;;;111.17;;
4294;SDS011;2161;53.634;10.100;2023-04-15T06:49:08;548.55;;;112.82;;
4294;SDS011;2161;53.634;10.100;2023-04-15T06:51:35;548.65;;;113.05;;
4294;SDS011;2161;53.634;10.100;2023-04-15T06:54:01;548.93;;;113.27;;
4294;SDS011;2161;53.634;10.100;2023-04-15T06:56:29;548.83;;;113.57;;
4294;SDS011;2161;53.634;10.100;2023-04-15T06:58:58;550.88;;;113.43;;
4294;SDS011;2161;53.634;10.100;2023-04-15T07:01:24;548.87;;;113.97;;
4294;SDS011;2161;53.634;10.100;2023-04-15T07:03:49;553.03;;;114.87;;
4294;SDS011;2161;53.634;10.100;2023-04-15T07:06:15;548.13;;;112.57;;
4294;SDS011;2161;53.634;10.100;2023-04-15T07:08:41;544.83;;;112.20;;
4294;SDS011;2161;53.634;10.100;2023-04-15T07:11:06;546.47;;;111.50;;
4294;SDS011;2161;53.634;10.100;2023-04-15T07:13:32;548.20;;;112.93;;
4294;SDS011;2161;53.634;10.100;2023-04-15T07:15:58;551.27;;;113.67;;
4294;SDS011;2161;53.634;10.100;2023-04-15T07:18:23;543.93;;;110.77;;
4294;SDS011;2161;53.634;10.100;2023-04-15T07:20:49;551.83;;;114.00;;
4294;SDS011;2161;53.634;10.100;2023-04-15T07:23:15;549.53;;;112.97;;
4294;SDS011;2161;53.634;10.100;2023-04-15T07:25:41;549.00;;;112.63;;
4294;SDS011;2161;53.634;10.100;2023-04-15T07:28:06;550.27;;;113.17;;
4294;SDS011;2161;53.634;10.100;2023-04-15T07:30:32;548.87;;;114.17;;
4294;SDS011;2161;53.634;10.100;2023-04-15T07:32:58;548.80;;;112.75;;
4294;SDS011;2161;53.634;10.100;2023-04-15T07:35:24;545.27;;;111.30;;
4294;SDS011;2161;53.634;10.100;2023-04-15T07:37:50;549.33;;;112.47;;
4294;SDS011;2161;53.634;10.100;2023-04-15T07:40:16;549.43;;;113.97;;
4294;SDS011;2161;53.634;10.100;2023-04-15T07:42:42;549.80;;;113.53;;
4294;SDS011;2161;53.634;10.100;2023-04-15T07:45:07;555.17;;;116.37;;
4294;SDS011;2161;53.634;10.100;2023-04-15T07:47:33;550.53;;;112.93;;
4294;SDS011;2161;53.634;10.100;2023-04-15T07:49:59;548.73;;;113.17;;
4294;SDS011;2161;53.634;10.100;2023-04-15T07:52:26;551.73;;;113.77;;
4294;SDS011;2161;53.634;10.100;2023-04-15T07:54:51;551.53;;;114.07;;
4294;SDS011;2161;53.634;10.100;2023-04-15T07:57:17;549.67;;;112.33;;
4294;SDS011;2161;53.634;10.100;2023-04-15T07:59:42;550.43;;;112.70;;
4294;SDS011;2161;53.634;10.100;2023-04-15T08:02:08;547.93;;;112.13;;
4294;SDS011;2161;53.634;10.100;2023-04-15T08:04:35;551.60;;;114.20;;
4294;SDS011;2161;53.634;10.100;2023-04-15T08:07:01;552.63;;;114.07;;
4294;SDS011;2161;53.634;10.100;2023-04-15T08:09:27;554.03;;;114.00;;
4294;SDS011;2161;53.634;10.100;2023-04-15T08:11:53;551.73;;;113.40;;
4294;SDS011;2161;53.634;10.100;2023-04-15T08:14:18;551.63;;;113.47;;
4294;SDS011;2161;53.634;10.100;2023-04-15T08:16:44;552.20;;;114.07;;
4294;SDS011;2161;53.634;10.100;2023-04-15T08:19:10;553.50;;;114.00;;
4294;SDS011;2161;53.634;10.100;2023-04-15T08:21:35;551.83;;;112.63;;
4294;SDS011;2161;53.634;10.100;2023-04-15T08:24:01;553.03;;;113.67;;
4294;SDS011;2161;53.634;10.100;2023-04-15T08:26:27;552.90;;;113.47;;
4294;SDS011;2161;53.634;10.100;2023-04-15T08:28:52;550.33;;;112.07;;
4294;SDS011;2161;53.634;10.100;2023-04-15T08:31:18;555.27;;;114.57;;
4294;SDS011;2161;53.634;10.100;2023-04-15T08:33:44;559.37;;;116.53;;
4294;SDS011;2161;53.634;10.100;2023-04-15T08:36:10;557.80;;;115.47;;
4294;SDS011;2161;53.634;10.100;2023-04-15T08:38:37;566.83;;;120.93;;
4294;SDS011;2161;53.634;10.100;2023-04-15T08:41:06;556.73;;;117.10;;
4294;SDS011;2161;53.634;10.100;2023-04-15T08:43:42;554.55;;;113.80;;
4294;SDS011;2161;53.634;10.100;2023-04-15T08:46:15;553.67;;;113.07;;
4294;SDS011;2161;53.634;10.100;2023-04-15T08:48:41;557.23;;;115.97;;
4294;SDS011;2161;53.634;10.100;2023-04-15T08:51:08;558.57;;;115.77;;
4294;SDS011;2161;53.634;10.100;2023-04-15T08:53:33;559.37;;;116.27;;
4294;SDS011;2161;53.634;10.100;2023-04-15T08:56:00;555.42;;;113.75;;
4294;SDS011;2161;53.634;10.100;2023-04-15T08:58:29;556.00;;;114.75;;
4294;SDS011;2161;53.634;10.100;2023-04-15T09:00:55;556.83;;;115.17;;
4294;SDS011;2161;53.634;10.100;2023-04-15T09:03:21;555.83;;;114.40;;
4294;SDS011;2161;53.634;10.100;2023-04-15T09:05:47;560.67;;;115.83;;
4294;SDS011;2161;53.634;10.100;2023-04-15T09:08:14;557.80;;;114.45;;
4294;SDS011;2161;53.634;10.100;2023-04-15T09:10:40;557.17;;;114.37;;
4294;SDS011;2161;53.634;10.100;2023-04-15T09:13:05;559.07;;;115.27;;
4294;SDS011;2161;53.634;10.100;2023-04-15T09:15:31;566.43;;;118.50;;
4294;SDS011;2161;53.634;10.100;2023-04-15T09:17:57;556.23;;;114.03;;
4294;SDS011;2161;53.634;10.100;2023-04-15T09:20:23;560.83;;;116.40;;
4294;SDS011;2161;53.634;10.100;2023-04-15T09:22:49;558.03;;;114.50;;
4294;SDS011;2161;53.634;10.100;2023-04-15T09:27:57;561.77;;;115.90;;
4294;SDS011;2161;53.634;10.100;2023-04-15T09:30:24;562.03;;;115.43;;
4294;SDS011;2161;53.634;10.100;2023-04-15T09:32:53;565.87;;;118.23;;
4294;SDS011;2161;53.634;10.100;2023-04-15T09:35:20;560.83;;;115.07;;
4294;SDS011;2161;53.634;10.100;2023-04-15T09:37:51;565.90;;;116.07;;
4294;SDS011;2161;53.634;10.100;2023-04-15T09:40:32;561.83;;;114.97;;
4294;SDS011;2161;53.634;10.100;2023-04-15T09:43:02;564.73;;;115.07;;
4294;SDS011;2161;53.634;10.100;2023-04-15T09:45:29;564.23;;;115.53;;
4294;SDS011;2161;53.634;10.100;2023-04-15T09:47:56;563.70;;;115.07;;
4294;SDS011;2161;53.634;10.100;2023-04-15T09:50:22;559.93;;;113.50;;
4294;SDS011;2161;53.634;10.100;2023-04-15T09:52:52;566.77;;;116.90;;
4294;SDS011;2161;53.634;10.100;2023-04-15T09:55:18;567.67;;;116.73;;
4294;SDS011;2161;53.634;10.100;2023-04-15T09:57:44;567.10;;;116.23;;
4294;SDS011;2161;53.634;10.100;2023-04-15T10:00:11;573.93;;;119.90;;
4294;SDS011;2161;53.634;10.100;2023-04-15T10:02:41;567.57;;;116.13;;
4294;SDS011;2161;53.634;10.100;2023-04-15T10:05:07;571.80;;;116.37;;
4294;SDS011;2161;53.634;10.100;2023-04-15T10:07:35;576.27;;;119.37;;
4294;SDS011;2161;53.634;10.100;2023-04-15T10:10:02;583.27;;;123.10;;
4294;SDS011;2161;53.634;10.100;2023-04-15T10:12:29;576.93;;;118.27;;
4294;SDS011;2161;53.634;10.100;2023-04-15T10:14:58;578.37;;;117.90;;
4294;SDS011;2161;53.634;10.100;2023-04-15T10:17:27;577.63;;;118.57;;
4294;SDS011;2161;53.634;10.100;2023-04-15T10:19:57;581.20;;;119.33;;
4294;SDS011;2161;53.634;10.100;2023-04-15T10:22:26;580.43;;;120.60;;
4294;SDS011;2161;53.634;10.100;2023-04-15T10:24:52;582.17;;;121.03;;
4294;SDS011;2161;53.634;10.100;2023-04-15T10:27:19;584.90;;;120.53;;
4294;SDS011;2161;53.634;10.100;2023-04-15T10:29:46;586.73;;;119.93;;
4294;SDS011;2161;53.634;10.100;2023-04-15T10:32:13;592.33;;;124.30;;
4294;SDS011;2161;53.634;10.100;2023-04-15T10:34:40;585.63;;;118.67;;
4294;SDS011;2161;53.634;10.100;2023-04-15T10:37:08;591.27;;;120.17;;
4294;SDS011;2161;53.634;10.100;2023-04-15T10:44:37;596.73;;;120.93;;
4294;SDS011;2161;53.634;10.100;2023-04-15T10:47:14;599.83;;;124.00;;
4294;SDS011;2161;53.634;10.100;2023-04-15T10:52:09;600.07;;;121.70;;
4294;SDS011;2161;53.634;10.100;2023-04-15T10:54:35;598.83;;;122.73;;
4294;SDS011;2161;53.634;10.100;2023-04-15T10:59:29;599.00;;;122.57;;
4294;SDS011;2161;53.634;10.100;2023-04-15T11:02:03;610.87;;;127.30;;
4294;SDS011;2161;53.634;10.100;2023-04-15T11:07:59;606.53;;;124.57;;
4294;SDS011;2161;53.634;10.100;2023-04-15T11:12:38;602.20;;;124.27;;
4294;SDS011;2161;53.634;10.100;2023-04-15T11:17:51;599.83;;;121.33;;
4294;SDS011;2161;53.634;10.100;2023-04-15T11:20:17;606.20;;;128.03;;
4294;SDS011;2161;53.634;10.100;2023-04-15T11:22:50;598.30;;;124.10;;
4294;SDS011;2161;53.634;10.100;2023-04-15T11:25:21;600.63;;;122.93;;
4294;SDS011;2161;53.634;10.100;2023-04-15T11:27:47;603.03;;;125.53;;
4294;SDS011;2161;53.634;10.100;2023-04-15T11:30:17;601.57;;;125.00;;
4294;SDS011;2161;53.634;10.100;2023-04-15T11:32:45;596.03;;;121.43;;
4294;SDS011;2161;53.634;10.100;2023-04-15T11:35:11;606.97;;;128.87;;
4294;SDS011;2161;53.634;10.100;2023-04-15T11:37:36;594.97;;;121.67;;
4294;SDS011;2161;53.634;10.100;2023-04-15T11:40:02;604.07;;;125.40;;
4294;SDS011;2161;53.634;10.100;2023-04-15T11:42:28;596.30;;;121.07;;
4294;SDS011;2161;53.634;10.100;2023-04-15T11:45:14;599.80;;;122.07;;
4294;SDS011;2161;53.634;10.100;2023-04-15T11:47:40;596.17;;;121.40;;
4294;SDS011;2161;53.634;10.100;2023-04-15T11:50:16;601.87;;;124.87;;
4294;SDS011;2161;53.634;10.100;2023-04-15T11:52:55;602.37;;;123.97;;
4294;SDS011;2161;53.634;10.100;2023-04-15T11:55:26;596.07;;;120.30;;
4294;SDS011;2161;53.634;10.100;2023-04-15T12:00:32;596.90;;;122.93;;
4294;SDS011;2161;53.634;10.100;2023-04-15T12:03:11;600.53;;;126.07;;
4294;SDS011;2161;53.634;10.100;2023-04-15T12:11:13;600.67;;;125.43;;
4294;SDS011;2161;53.634;10.100;2023-04-15T12:13:44;597.70;;;125.60;;
4294;SDS011;2161;53.634;10.100;2023-04-15T12:16:12;598.67;;;125.50;;
4294;SDS011;2161;53.634;10.100;2023-04-15T12:18:40;599.50;;;126.10;;
4294;SDS011;2161;53.634;10.100;2023-04-15T12:21:09;593.53;;;121.13;;
4294;SDS011;2161;53.634;10.100;2023-04-15T12:23:36;593.93;;;121.07;;
4294;SDS011;2161;53.634;10.100;2023-04-15T12:26:06;596.77;;;124.20;;
4294;SDS011;2161;53.634;10.100;2023-04-15T12:28:35;591.17;;;122.67;;
4294;SDS011;2161;53.634;10.100;2023-04-15T12:31:10;591.10;;;121.60;;
4294;SDS011;2161;53.634;10.100;2023-04-15T12:33:36;591.10;;;121.97;;
4294;SDS011;2161;53.634;10.100;2023-04-15T12:36:03;590.80;;;122.40;;
4294;SDS011;2161;53.634;10.100;2023-04-15T12:38:29;591.77;;;120.60;;
4294;SDS011;2161;53.634;10.100;2023-04-15T12:40:55;594.53;;;122.43;;
4294;SDS011;2161;53.634;10.100;2023-04-15T12:43:22;606.43;;;130.33;;
4294;SDS011;2161;53.634;10.100;2023-04-15T12:45:47;599.27;;;123.80;;
4294;SDS011;2161;53.634;10.100;2023-04-15T12:48:13;599.77;;;125.47;;
4294;SDS011;2161;53.634;10.100;2023-04-15T12:50:38;592.27;;;122.03;;
4294;SDS011;2161;53.634;10.100;2023-04-15T12:53:04;598.20;;;125.90;;
4294;SDS011;2161;53.634;10.100;2023-04-15T12:55:30;600.00;;;125.47;;
4294;SDS011;2161;53.634;10.100;2023-04-15T12:57:56;594.00;;;125.47;;
4294;SDS011;2161;53.634;10.100;2023-04-15T13:00:21;602.47;;;128.17;;
4294;SDS011;2161;53.634;10.100;2023-04-15T13:02:47;599.13;;;123.70;;
4294;SDS011;2161;53.634;10.100;2023-04-15T13:05:13;596.33;;;124.47;;
4294;SDS011;2161;53.634;10.100;2023-04-15T13:07:39;599.73;;;124.17;;
4294;SDS011;2161;53.634;10.100;2023-04-15T13:10:06;599.80;;;124.67;;
4294;SDS011;2161;53.634;10.100;2023-04-15T13:12:32;600.80;;;124.87;;
4294;SDS011;2161;53.634;10.100;2023-04-15T13:15:01;593.30;;;122.47;;
4294;SDS011;2161;53.634;10.100;2023-04-15T13:17:28;597.53;;;126.97;;
4294;SDS011;2161;53.634;10.100;2023-04-15T13:19:53;597.23;;;123.50;;
4294;SDS011;2161;53.634;10.100;2023-04-15T13:22:19;606.23;;;128.47;;
4294;SDS011;2161;53.634;10.100;2023-04-15T13:24:44;604.07;;;125.67;;
4294;SDS011;2161;53.634;10.100;2023-04-15T13:27:11;605.03;;;127.23;;
4294;SDS011;2161;53.634;10.100;2023-04-15T13:29:37;600.73;;;125.10;;
4294;SDS011;2161;53.634;10.100;2023-04-15T13:32:04;600.03;;;125.03;;
4294;SDS011;2161;53.634;10.100;2023-04-15T13:34:30;604.67;;;125.93;;
4294;SDS011;2161;53.634;10.100;2023-04-15T13:36:55;601.03;;;122.60;;
4294;SDS011;2161;53.634;10.100;2023-04-15T13:39:21;620.07;;;134.43;;
4294;SDS011;2161;53.634;10.100;2023-04-15T13:41:47;613.83;;;131.47;;
4294;SDS011;2161;53.634;10.100;2023-04-15T13:44:12;610.13;;;129.43;;
4294;SDS011;2161;53.634;10.100;2023-04-15T13:46:38;613.30;;;129.50;;
4294;SDS011;2161;53.634;10.100;2023-04-15T13:49:05;618.33;;;131.03;;
4294;SDS011;2161;53.634;10.100;2023-04-15T13:51:31;619.93;;;130.23;;
4294;SDS011;2161;53.634;10.100;2023-04-15T13:53:57;627.23;;;135.83;;
4294;SDS011;2161;53.634;10.100;2023-04-15T13:56:22;628.53;;;133.93;;
4294;SDS011;2161;53.634;10.100;2023-04-15T13:58:48;622.63;;;131.63;;
4294;SDS011;2161;53.634;10.100;2023-04-15T14:01:13;625.57;;;133.23;;
4294;SDS011;2161;53.634;10.100;2023-04-15T14:03:39;622.70;;;130.23;;
4294;SDS011;2161;53.634;10.100;2023-04-15T14:06:05;624.27;;;131.23;;
4294;SDS011;2161;53.634;10.100;2023-04-15T14:08:30;627.33;;;135.83;;
4294;SDS011;2161;53.634;10.100;2023-04-15T14:10:56;624.53;;;133.43;;
4294;SDS011;2161;53.634;10.100;2023-04-15T14:13:21;629.53;;;136.70;;
4294;SDS011;2161;53.634;10.100;2023-04-15T14:15:47;621.83;;;132.43;;
4294;SDS011;2161;53.634;10.100;2023-04-15T14:18:12;629.23;;;135.87;;
4294;SDS011;2161;53.634;10.100;2023-04-15T14:20:38;619.57;;;128.70;;
4294;SDS011;2161;53.634;10.100;2023-04-15T14:23:04;623.53;;;133.70;;
4294;SDS011;2161;53.634;10.100;2023-04-15T14:25:29;627.23;;;135.23;;
4294;SDS011;2161;53.634;10.100;2023-04-15T14:27:55;624.20;;;131.23;;
4294;SDS011;2161;53.634;10.100;2023-04-15T14:30:21;635.23;;;138.73;;
4294;SDS011;2161;53.634;10.100;2023-04-15T14:32:46;629.17;;;136.37;;